createdAt,value
2019-05-23T00:02:02.285Z,17.62
2019-05-23T00:06:27.693Z,18.05
2019-05-23T00:10:55.860Z,16.15
2019-05-23T00:15:23.963Z,14.00
2019-05-23T00:19:29.716Z,15.95
2019-05-23T00:23:34.960Z,18.07
2019-05-23T00:27:43.001Z,16.23
2019-05-23T00:31:56.177Z,17.70
2019-05-23T00:36:03.592Z,16.42
2019-05-23T00:40:10.634Z,15.50
2019-05-23T00:44:16.442Z,17.30
2019-05-23T00:48:22.072Z,17.35
2019-05-23T00:52:27.369Z,17.00
2019-05-23T00:56:33.379Z,17.55
2019-05-23T01:00:39.661Z,17.52
2019-05-23T01:04:44.747Z,18.87
2019-05-23T01:08:51.779Z,17.48
2019-05-23T01:12:58.204Z,18.45
2019-05-23T01:17:05.917Z,16.40
2019-05-23T01:21:29.823Z,18.17
2019-05-23T01:25:37.225Z,17.30
2019-05-23T01:29:49.587Z,19.37
2019-05-23T01:33:54.620Z,19.57
2019-05-23T01:38:04.008Z,19.32
2019-05-23T01:42:07.861Z,17.60
2019-05-23T01:46:12.992Z,15.03
2019-05-23T01:50:20.755Z,13.72
2019-05-23T01:54:25.941Z,12.93
2019-05-23T01:58:32.002Z,14.98
2019-05-23T02:02:37.669Z,14.07
2019-05-23T02:06:42.939Z,14.43
2019-05-23T02:10:48.828Z,14.80
2019-05-23T02:14:54.997Z,15.85
2019-05-23T02:19:00.792Z,15.53
2019-05-23T02:23:06.302Z,15.32
2019-05-23T02:27:12.016Z,15.23
2019-05-23T02:31:20.796Z,14.63
2019-05-23T02:35:25.791Z,15.55
2019-05-23T02:39:48.452Z,14.65
2019-05-23T02:43:58.788Z,14.78
2019-05-23T02:48:08.440Z,15.72
2019-05-23T02:52:37.033Z,13.78
2019-05-23T02:56:43.431Z,15.08
2019-05-23T03:01:03.310Z,15.20
2019-05-23T03:05:12.045Z,15.28
2019-05-23T03:09:19.935Z,15.45
2019-05-23T03:13:28.181Z,15.40
2019-05-23T03:17:35.507Z,15.48
2019-05-23T03:21:41.874Z,13.55
2019-05-23T03:26:25.149Z,15.63
2019-05-23T03:30:32.180Z,18.02
2019-05-23T03:34:39.473Z,17.12
2019-05-23T03:38:44.969Z,15.05
2019-05-23T03:42:51.813Z,16.85
2019-05-23T03:46:57.534Z,15.40
2019-05-23T03:51:03.342Z,15.88
2019-05-23T03:55:09.136Z,14.78
2019-05-23T03:59:15.832Z,14.78
2019-05-23T04:03:22.415Z,17.17
2019-05-23T04:07:28.272Z,18.98
2019-05-23T04:11:34.047Z,17.55
2019-05-23T04:15:39.236Z,17.62
2019-05-23T04:19:44.576Z,17.65
2019-05-23T04:23:49.324Z,16.50
2019-05-23T04:27:55.239Z,18.67
2019-05-23T04:32:07.715Z,19.92
2019-05-23T04:36:06.801Z,19.40
2019-05-23T04:40:12.090Z,17.92
2019-05-23T04:44:17.660Z,20.35
2019-05-23T04:48:22.797Z,20.57
2019-05-23T04:52:28.546Z,19.55
2019-05-23T04:56:35.817Z,18.85
2019-05-23T05:00:42.115Z,19.77
2019-05-23T05:04:46.961Z,19.65
2019-05-23T05:08:54.253Z,20.85
2019-05-23T05:12:59.128Z,21.73
2019-05-23T05:17:05.027Z,21.80
2019-05-23T05:21:09.946Z,21.87
2019-05-23T05:25:15.921Z,22.45
2019-05-23T05:29:21.037Z,20.57
2019-05-23T05:33:26.239Z,22.05
2019-05-23T05:37:32.301Z,19.25
2019-05-23T05:41:37.699Z,18.87
2019-05-23T05:45:43.786Z,17.70
2019-05-23T05:49:48.932Z,18.48
2019-05-23T05:53:54.959Z,18.65
2019-05-23T05:57:59.914Z,18.27
2019-05-23T06:02:08.376Z,17.82
2019-05-23T06:06:24.309Z,18.87
2019-05-23T06:10:29.985Z,20.52
2019-05-23T06:14:35.473Z,19.80
2019-05-23T06:18:40.925Z,20.68
2019-05-23T06:22:46.404Z,20.43
2019-05-23T06:26:52.453Z,18.45
2019-05-23T06:30:58.253Z,18.17
2019-05-23T06:35:03.754Z,19.70
2019-05-23T06:39:10.654Z,17.75
2019-05-23T06:43:16.134Z,16.87
2019-05-23T06:47:21.355Z,16.73
2019-05-23T06:51:26.432Z,19.07
2019-05-23T06:55:31.324Z,19.10
2019-05-23T06:59:36.531Z,17.80
2019-05-23T07:03:43.587Z,17.77
2019-05-23T07:07:48.819Z,16.93
2019-05-23T07:11:56.687Z,16.17
2019-05-23T07:16:01.595Z,16.12
2019-05-23T07:20:07.504Z,15.80
2019-05-23T07:24:12.703Z,14.40
2019-05-23T07:28:17.607Z,11.55
2019-05-23T07:32:22.496Z,14.60
2019-05-23T07:36:28.548Z,14.00
2019-05-23T07:40:33.728Z,12.93
2019-05-23T07:44:47.899Z,11.45
2019-05-23T07:48:46.817Z,9.75
2019-05-23T07:52:53.184Z,10.23
2019-05-23T07:56:58.761Z,11.35
2019-05-23T08:01:05.327Z,8.30
2019-05-23T08:05:12.772Z,10.20
2019-05-23T08:09:18.052Z,8.40
2019-05-23T08:13:23.256Z,7.05
2019-05-23T08:17:28.632Z,8.25
2019-05-23T08:21:33.467Z,8.25
2019-05-23T08:25:38.361Z,7.67
2019-05-23T08:29:43.625Z,7.22
2019-05-23T08:33:49.204Z,8.50
2019-05-23T08:37:55.881Z,7.72
2019-05-23T08:42:00.784Z,7.83
2019-05-23T08:46:06.215Z,7.47
2019-05-23T08:50:12.610Z,8.98
2019-05-23T08:54:17.689Z,9.05
2019-05-23T08:58:22.607Z,7.97
2019-05-23T09:02:28.656Z,8.90
2019-05-23T09:06:33.966Z,9.25
2019-05-23T09:10:39.537Z,8.75
2019-05-23T09:14:44.913Z,8.28
2019-05-23T09:18:49.743Z,8.33
2019-05-23T09:22:54.636Z,8.50
2019-05-23T09:26:59.793Z,8.85
2019-05-23T09:31:04.792Z,8.83
2019-05-23T09:35:21.137Z,8.53
2019-05-23T09:39:20.676Z,8.45
2019-05-23T09:43:25.944Z,8.40
2019-05-23T09:47:30.856Z,8.50
2019-05-23T09:51:35.697Z,7.85
2019-05-23T09:55:40.595Z,7.90
2019-05-23T09:59:45.520Z,7.70
2019-05-23T10:03:50.444Z,7.67
2019-05-23T10:07:55.245Z,7.65
2019-05-23T10:12:00.155Z,7.92
2019-05-23T10:16:10.233Z,7.62
2019-05-23T10:20:16.323Z,8.83
2019-05-23T10:24:21.220Z,8.18
2019-05-23T10:28:26.132Z,7.92
2019-05-23T10:32:31.680Z,7.92
2019-05-23T10:36:36.585Z,8.20
2019-05-23T10:40:42.190Z,8.08
2019-05-23T10:44:48.155Z,7.72
2019-05-23T10:48:53.367Z,7.33
2019-05-23T10:52:58.465Z,7.17
2019-05-23T10:57:03.459Z,7.75
2019-05-23T11:01:09.256Z,7.45
2019-05-23T11:05:14.595Z,6.80
2019-05-23T11:09:36.206Z,6.87
2019-05-23T11:13:26.765Z,7.28
2019-05-23T11:17:31.908Z,6.65
2019-05-23T11:21:36.748Z,7.00
2019-05-23T11:25:42.626Z,6.30
2019-05-23T11:29:47.518Z,6.20
2019-05-23T11:33:52.413Z,7.00
2019-05-23T11:37:58.479Z,7.03
2019-05-23T11:42:03.685Z,7.25
2019-05-23T11:46:15.398Z,5.87
2019-05-23T11:50:20.377Z,6.37
2019-05-23T11:54:25.344Z,6.20
2019-05-23T11:58:32.516Z,6.50
2019-05-23T12:02:40.901Z,6.80
2019-05-23T12:06:58.852Z,6.87
2019-05-23T12:11:04.269Z,6.08
2019-05-23T12:15:14.505Z,6.33
2019-05-23T12:19:20.377Z,6.37
2019-05-23T12:23:25.455Z,6.47
2019-05-23T12:27:30.316Z,5.78
2019-05-23T12:31:35.197Z,5.80
2019-05-23T12:35:40.102Z,5.90
2019-05-23T12:39:44.993Z,6.97
2019-05-23T12:43:49.884Z,5.37
2019-05-23T12:48:05.369Z,6.75
2019-05-23T12:52:12.525Z,5.92
2019-05-23T12:56:17.378Z,6.78
2019-05-23T13:00:41.705Z,5.47
2019-05-23T13:04:48.196Z,4.60
2019-05-23T13:08:53.170Z,5.30
2019-05-23T13:12:58.373Z,6.00
2019-05-23T13:17:03.784Z,4.55
2019-05-23T13:21:08.901Z,6.37
2019-05-23T13:25:15.521Z,6.10
2019-05-23T13:29:24.095Z,5.37
2019-05-23T13:33:27.954Z,6.87
2019-05-23T13:37:33.509Z,4.70
2019-05-23T13:41:38.912Z,5.17
2019-05-23T13:45:43.808Z,5.45
2019-05-23T13:49:48.926Z,5.90
2019-05-23T13:53:53.840Z,6.25
2019-05-23T13:57:58.721Z,6.35
2019-05-23T14:02:03.628Z,5.80
2019-05-23T14:06:09.494Z,5.70
2019-05-23T14:10:15.467Z,5.22
2019-05-23T14:14:20.377Z,6.00
2019-05-23T14:18:27.027Z,5.17
2019-05-23T14:22:33.560Z,5.40
2019-05-23T14:26:45.039Z,5.28
2019-05-23T14:31:01.249Z,4.60
2019-05-23T14:35:06.800Z,4.58
2019-05-23T14:39:22.142Z,5.00
2019-05-23T14:43:28.024Z,5.10
2019-05-23T14:47:47.061Z,4.87
2019-05-23T14:52:04.988Z,4.10
2019-05-23T14:56:09.873Z,4.50
2019-05-23T15:00:15.535Z,3.67
2019-05-23T15:04:20.799Z,4.20
2019-05-23T15:08:25.762Z,4.50
2019-05-23T15:12:31.341Z,4.47
2019-05-23T15:16:36.338Z,4.97
2019-05-23T15:20:41.242Z,4.15
2019-05-23T15:24:46.216Z,4.60
2019-05-23T15:28:51.259Z,4.40
2019-05-23T15:32:56.393Z,4.30
2019-05-23T15:37:01.511Z,3.08
2019-05-23T15:41:06.497Z,3.70
2019-05-23T15:45:11.807Z,3.30
2019-05-23T15:49:17.131Z,3.70
2019-05-23T15:53:32.439Z,3.62
2019-05-23T15:57:53.520Z,4.17
2019-05-23T16:02:09.712Z,4.17
2019-05-23T16:06:17.933Z,2.60
2019-05-23T16:10:24.608Z,3.42
2019-05-23T16:14:30.396Z,3.15
2019-05-23T16:18:35.683Z,3.58
2019-05-23T16:22:40.690Z,3.55
2019-05-23T16:26:45.899Z,3.62
2019-05-23T16:30:51.261Z,5.53
2019-05-23T16:34:56.165Z,3.80
2019-05-23T16:39:01.621Z,4.00
2019-05-23T16:43:08.861Z,4.40
2019-05-23T16:47:13.783Z,4.90
2019-05-23T16:51:18.782Z,4.78
2019-05-23T16:55:32.371Z,4.33
2019-05-23T16:59:42.053Z,4.72
2019-05-23T17:04:08.793Z,4.65
2019-05-23T17:08:39.973Z,4.15
2019-05-23T17:12:56.507Z,4.25
2019-05-23T17:17:14.493Z,4.00
2019-05-23T17:21:36.233Z,4.37
2019-05-23T17:25:59.009Z,4.60
2019-05-23T17:30:13.289Z,4.53
2019-05-23T17:34:18.709Z,4.37
2019-05-23T17:38:24.540Z,4.10
2019-05-23T17:42:29.439Z,4.20
2019-05-23T17:46:34.423Z,4.25
2019-05-23T17:50:39.316Z,4.90
2019-05-23T17:54:44.787Z,4.85
2019-05-23T17:58:50.542Z,4.53
2019-05-23T18:02:55.809Z,5.17
2019-05-23T18:07:01.237Z,5.37
2019-05-23T18:11:06.965Z,3.85
2019-05-23T18:15:13.578Z,4.62
2019-05-23T18:19:19.703Z,3.70
2019-05-23T18:23:25.471Z,3.40
2019-05-23T18:27:32.105Z,3.87
2019-05-23T18:31:39.016Z,3.50
2019-05-23T18:35:43.913Z,10.08
2019-05-23T18:39:50.023Z,8.25
2019-05-23T18:43:55.522Z,5.95
2019-05-23T18:48:01.219Z,4.53
2019-05-23T18:52:06.682Z,4.95
2019-05-23T18:56:11.568Z,6.58
2019-05-23T19:00:17.364Z,13.65
2019-05-23T19:04:22.219Z,7.47
2019-05-23T19:08:27.153Z,8.15
2019-05-23T19:12:32.955Z,5.75
2019-05-23T19:16:38.297Z,3.47
2019-05-23T19:20:43.272Z,3.45
2019-05-23T19:24:48.199Z,13.20
2019-05-23T19:28:53.114Z,11.43
2019-05-23T19:32:58.010Z,12.25
2019-05-23T19:37:03.649Z,5.90
2019-05-23T19:41:10.916Z,4.33
2019-05-23T19:45:15.830Z,20.23
2019-05-23T19:49:20.943Z,8.65
2019-05-23T19:53:25.888Z,19.17
2019-05-23T19:57:32.126Z,7.40
2019-05-23T20:01:53.836Z,7.25
2019-05-23T20:05:59.725Z,8.05
2019-05-23T20:10:04.977Z,5.50
2019-05-23T20:14:10.061Z,5.90
2019-05-23T20:18:15.948Z,5.40
2019-05-23T20:22:20.845Z,4.60
2019-05-23T20:26:25.795Z,4.50
2019-05-23T20:30:59.216Z,4.17
2019-05-23T20:35:05.027Z,4.67
2019-05-23T20:39:09.968Z,3.87
2019-05-23T20:43:14.945Z,3.92
2019-05-23T20:47:19.878Z,3.20
2019-05-23T20:51:25.156Z,3.75
2019-05-23T20:55:30.072Z,3.35
2019-05-23T20:59:35.024Z,3.92
2019-05-23T21:03:40.609Z,3.67
2019-05-23T21:07:45.509Z,3.15
2019-05-23T21:11:50.495Z,5.28
2019-05-23T21:15:55.433Z,15.00
2019-05-23T21:20:00.340Z,7.22
2019-05-23T21:24:05.686Z,4.08
2019-05-23T21:28:10.741Z,3.52
2019-05-23T21:32:15.668Z,3.25
2019-05-23T21:36:20.576Z,3.90
2019-05-23T21:40:42.457Z,3.60
2019-05-23T21:44:47.301Z,4.20
2019-05-23T21:48:52.276Z,3.70
2019-05-23T21:52:57.186Z,3.77
2019-05-23T21:57:02.020Z,3.70
2019-05-23T22:01:39.283Z,13.95
2019-05-23T22:05:44.715Z,4.12
2019-05-23T22:09:49.533Z,4.67
2019-05-23T22:13:54.360Z,5.17
2019-05-23T22:17:59.661Z,4.50
2019-05-23T22:22:05.376Z,4.67
2019-05-23T22:26:10.297Z,4.15
2019-05-23T22:30:16.045Z,3.77
2019-05-23T22:34:39.278Z,4.28
2019-05-23T22:38:44.444Z,3.98
2019-05-23T22:42:49.318Z,4.37
2019-05-23T22:46:54.334Z,4.53
2019-05-23T22:50:59.588Z,4.80
2019-05-23T22:55:04.622Z,3.92
2019-05-23T22:59:09.888Z,4.35
2019-05-23T23:03:14.784Z,3.70
2019-05-23T23:07:21.016Z,4.20
2019-05-23T23:11:25.908Z,3.92
2019-05-23T23:15:32.839Z,4.28
2019-05-23T23:19:37.732Z,3.95
2019-05-23T23:23:42.649Z,4.05
2019-05-23T23:27:47.468Z,4.08
2019-05-23T23:31:52.359Z,3.92
2019-05-23T23:35:57.236Z,4.45
2019-05-23T23:40:02.340Z,4.20
2019-05-23T23:44:10.408Z,3.87
2019-05-23T23:48:33.144Z,4.15
2019-05-23T23:52:55.716Z,3.90
2019-05-23T23:57:18.234Z,4.20
